sensor_id;sensor_type;location;lat;lon;timestamp;pressure;altitude;pressure_sealevel;temperature;humidity
43804;BME280;29430;52.924;-2.388;2023-03-04T00:04:12;100804.50;;;5.07;73.36
43804;BME280;29430;52.924;-2.388;2023-03-04T00:09:04;100806.72;;;5.12;73.53
43804;BME280;29430;52.924;-2.388;2023-03-04T00:13:56;100804.72;;;5.14;73.22
43804;BME280;29430;52.924;-2.388;2023-03-04T00:18:48;100809.78;;;5.17;72.80
43804;BME280;29430;52.924;-2.388;2023-03-04T00:23:40;100812.47;;;5.17;72.48
43804;BME280;29430;52.924;-2.388;2023-03-04T00:28:32;100808.13;;;5.16;72.04
43804;BME280;29430;52.924;-2.388;2023-03-04T00:33:23;100809.94;;;5.15;72.40
43804;BME280;29430;52.924;-2.388;2023-03-04T00:38:15;100805.44;;;5.16;72.97
43804;BME280;29430;52.924;-2.388;2023-03-04T00:43:07;100810.81;;;5.16;72.12
43804;BME280;29430;52.924;-2.388;2023-03-04T00:47:59;100808.59;;;5.11;73.08
43804;BME280;29430;52.924;-2.388;2023-03-04T00:52:50;100810.25;;;5.12;72.60
43804;BME280;29430;52.924;-2.388;2023-03-04T00:57:42;100809.41;;;5.12;72.78
43804;BME280;29430;52.924;-2.388;2023-03-04T01:02:34;100798.13;;;5.08;73.04
43804;BME280;29430;52.924;-2.388;2023-03-04T01:07:25;100803.81;;;5.05;72.79
43804;BME280;29430;52.924;-2.388;2023-03-04T01:12:17;100812.03;;;5.04;72.88
43804;BME280;29430;52.924;-2.388;2023-03-04T01:17:10;100802.28;;;5.02;72.97
43804;BME280;29430;52.924;-2.388;2023-03-04T01:22:02;100800.56;;;5.01;72.96
43804;BME280;29430;52.924;-2.388;2023-03-04T01:26:54;100799.22;;;4.97;73.33
43804;BME280;29430;52.924;-2.388;2023-03-04T01:31:46;100787.75;;;4.95;72.95
43804;BME280;29430;52.924;-2.388;2023-03-04T01:36:37;100798.34;;;4.97;73.46
43804;BME280;29430;52.924;-2.388;2023-03-04T01:41:30;100796.69;;;4.96;72.83
43804;BME280;29430;52.924;-2.388;2023-03-04T01:46:22;100797.81;;;4.93;73.07
43804;BME280;29430;52.924;-2.388;2023-03-04T01:51:16;100790.75;;;4.92;73.21
43804;BME280;29430;52.924;-2.388;2023-03-04T02:01:15;100781.63;;;4.85;73.97
43804;BME280;29430;52.924;-2.388;2023-03-04T02:06:06;100784.31;;;4.85;74.61
43804;BME280;29430;52.924;-2.388;2023-03-04T02:10:58;100781.47;;;4.87;74.32
43804;BME280;29430;52.924;-2.388;2023-03-04T02:15:50;100777.41;;;4.82;73.78
43804;BME280;29430;52.924;-2.388;2023-03-04T02:20:50;100774.66;;;4.74;73.97
43804;BME280;29430;52.924;-2.388;2023-03-04T02:25:49;100773.63;;;4.75;74.22
43804;BME280;29430;52.924;-2.388;2023-03-04T02:30:43;100763.03;;;4.74;73.77
43804;BME280;29430;52.924;-2.388;2023-03-04T02:35:34;100764.34;;;4.70;72.96
43804;BME280;29430;52.924;-2.388;2023-03-04T02:40:29;100766.47;;;4.66;71.82
43804;BME280;29430;52.924;-2.388;2023-03-04T02:45:50;100767.97;;;4.60;72.45
43804;BME280;29430;52.924;-2.388;2023-03-04T02:50:45;100758.03;;;4.61;72.99
43804;BME280;29430;52.924;-2.388;2023-03-04T02:55:37;100748.75;;;4.55;73.11
43804;BME280;29430;52.924;-2.388;2023-03-04T03:00:29;100746.66;;;4.49;72.71
43804;BME280;29430;52.924;-2.388;2023-03-04T03:05:21;100746.66;;;4.49;72.54
43804;BME280;29430;52.924;-2.388;2023-03-04T03:10:14;100745.69;;;4.50;72.84
43804;BME280;29430;52.924;-2.388;2023-03-04T03:15:06;100744.84;;;4.50;72.56
43804;BME280;29430;52.924;-2.388;2023-03-04T03:19:58;100738.91;;;4.46;72.69
43804;BME280;29430;52.924;-2.388;2023-03-04T03:24:50;100733.69;;;4.44;72.24
43804;BME280;29430;52.924;-2.388;2023-03-04T03:29:41;100729.88;;;4.47;72.88
43804;BME280;29430;52.924;-2.388;2023-03-04T03:34:33;100728.16;;;4.46;72.09
43804;BME280;29430;52.924;-2.388;2023-03-04T03:39:25;100739.69;;;4.38;72.71
43804;BME280;29430;52.924;-2.388;2023-03-04T03:44:16;100728.41;;;4.35;73.20
43804;BME280;29430;52.924;-2.388;2023-03-04T03:49:08;100731.41;;;4.32;73.65
43804;BME280;29430;52.924;-2.388;2023-03-04T03:54:00;100728.56;;;4.33;72.85
43804;BME280;29430;52.924;-2.388;2023-03-04T03:58:51;100733.94;;;4.33;72.59
43804;BME280;29430;52.924;-2.388;2023-03-04T04:03:43;100726.03;;;4.32;72.85
43804;BME280;29430;52.924;-2.388;2023-03-04T04:08:35;100717.81;;;4.33;72.38
43804;BME280;29430;52.924;-2.388;2023-03-04T04:13:26;100714.97;;;4.35;72.87
43804;BME280;29430;52.924;-2.388;2023-03-04T04:18:18;100724.59;;;4.37;72.39
43804;BME280;29430;52.924;-2.388;2023-03-04T04:23:10;100723.50;;;4.30;71.84
43804;BME280;29430;52.924;-2.388;2023-03-04T04:28:02;100718.56;;;4.25;72.06
43804;BME280;29430;52.924;-2.388;2023-03-04T04:32:54;100720.72;;;4.22;71.95
43804;BME280;29430;52.924;-2.388;2023-03-04T04:37:45;100726.25;;;4.20;72.59
43804;BME280;29430;52.924;-2.388;2023-03-04T04:42:37;100734.47;;;4.19;73.44
43804;BME280;29430;52.924;-2.388;2023-03-04T04:47:29;100733.13;;;4.23;73.57
43804;BME280;29430;52.924;-2.388;2023-03-04T04:52:20;100737.16;;;4.19;72.84
43804;BME280;29430;52.924;-2.388;2023-03-04T04:57:12;100733.44;;;4.20;73.54
43804;BME280;29430;52.924;-2.388;2023-03-04T05:02:04;100739.06;;;4.26;73.56
43804;BME280;29430;52.924;-2.388;2023-03-04T05:06:55;100735.22;;;4.29;73.78
43804;BME280;29430;52.924;-2.388;2023-03-04T05:11:47;100741.31;;;4.31;73.13
43804;BME280;29430;52.924;-2.388;2023-03-04T05:16:39;100739.31;;;4.33;73.52
43804;BME280;29430;52.924;-2.388;2023-03-04T05:21:31;100751.59;;;4.36;73.72
43804;BME280;29430;52.924;-2.388;2023-03-04T05:26:22;100748.19;;;4.34;73.41
43804;BME280;29430;52.924;-2.388;2023-03-04T05:31:14;100750.88;;;4.34;73.82
43804;BME280;29430;52.924;-2.388;2023-03-04T05:36:07;100747.75;;;4.38;73.68
43804;BME280;29430;52.924;-2.388;2023-03-04T05:41:01;100755.94;;;4.37;72.77
43804;BME280;29430;52.924;-2.388;2023-03-04T05:45:54;100763.63;;;4.32;72.92
43804;BME280;29430;52.924;-2.388;2023-03-04T05:50:46;100756.84;;;4.27;72.77
43804;BME280;29430;52.924;-2.388;2023-03-04T05:55:38;100758.84;;;4.25;72.94
43804;BME280;29430;52.924;-2.388;2023-03-04T06:00:29;100758.47;;;4.20;73.14
43804;BME280;29430;52.924;-2.388;2023-03-04T06:05:21;100757.47;;;4.21;73.93
43804;BME280;29430;52.924;-2.388;2023-03-04T06:10:14;100755.19;;;4.26;74.02
43804;BME280;29430;52.924;-2.388;2023-03-04T06:15:07;100755.88;;;4.28;73.55
43804;BME280;29430;52.924;-2.388;2023-03-04T06:20:00;100767.38;;;4.21;72.72
43804;BME280;29430;52.924;-2.388;2023-03-04T06:24:52;100765.81;;;4.18;73.99
43804;BME280;29430;52.924;-2.388;2023-03-04T06:29:43;100765.34;;;4.23;74.49
43804;BME280;29430;52.924;-2.388;2023-03-04T06:34:35;100765.22;;;4.24;74.03
43804;BME280;29430;52.924;-2.388;2023-03-04T06:39:27;100770.59;;;4.24;74.71
43804;BME280;29430;52.924;-2.388;2023-03-04T06:44:19;100767.91;;;4.24;74.64
43804;BME280;29430;52.924;-2.388;2023-03-04T06:49:11;100771.91;;;4.20;73.32
43804;BME280;29430;52.924;-2.388;2023-03-04T06:54:02;100776.56;;;4.18;73.49
43804;BME280;29430;52.924;-2.388;2023-03-04T06:58:54;100794.22;;;4.21;73.69
43804;BME280;29430;52.924;-2.388;2023-03-04T07:03:47;100793.38;;;4.20;73.30
43804;BME280;29430;52.924;-2.388;2023-03-04T07:08:39;100795.34;;;4.18;73.20
43804;BME280;29430;52.924;-2.388;2023-03-04T07:13:31;100794.66;;;4.16;73.17
43804;BME280;29430;52.924;-2.388;2023-03-04T07:18:24;100789.00;;;4.19;73.42
43804;BME280;29430;52.924;-2.388;2023-03-04T07:23:16;100801.44;;;4.20;73.40
43804;BME280;29430;52.924;-2.388;2023-03-04T07:28:08;100799.44;;;4.22;73.92
43804;BME280;29430;52.924;-2.388;2023-03-04T07:33:00;100794.75;;;4.24;73.92
43804;BME280;29430;52.924;-2.388;2023-03-04T07:37:51;100801.66;;;4.27;73.47
43804;BME280;29430;52.924;-2.388;2023-03-04T07:42:43;100808.88;;;4.26;73.86
43804;BME280;29430;52.924;-2.388;2023-03-04T07:47:35;100802.50;;;4.27;73.35
43804;BME280;29430;52.924;-2.388;2023-03-04T07:52:26;100796.16;;;4.28;73.90
43804;BME280;29430;52.924;-2.388;2023-03-04T07:57:18;100796.84;;;4.30;73.77
43804;BME280;29430;52.924;-2.388;2023-03-04T08:02:10;100805.91;;;4.29;73.73
43804;BME280;29430;52.924;-2.388;2023-03-04T08:07:01;100792.94;;;4.25;73.54
43804;BME280;29430;52.924;-2.388;2023-03-04T08:11:53;100802.28;;;4.21;73.23
43804;BME280;29430;52.924;-2.388;2023-03-04T08:16:45;100799.72;;;4.19;74.07
43804;BME280;29430;52.924;-2.388;2023-03-04T08:21:36;100803.81;;;4.23;74.14
43804;BME280;29430;52.924;-2.388;2023-03-04T08:26:31;100813.50;;;4.34;74.99
43804;BME280;29430;52.924;-2.388;2023-03-04T08:31:24;100808.22;;;4.42;74.90
43804;BME280;29430;52.924;-2.388;2023-03-04T08:36:16;100809.94;;;4.43;74.14
43804;BME280;29430;52.924;-2.388;2023-03-04T08:41:08;100804.78;;;4.50;73.35
43804;BME280;29430;52.924;-2.388;2023-03-04T08:46:00;100795.75;;;4.51;72.81
43804;BME280;29430;52.924;-2.388;2023-03-04T08:50:52;100797.97;;;4.56;72.37
43804;BME280;29430;52.924;-2.388;2023-03-04T08:55:44;100794.28;;;4.57;72.52
43804;BME280;29430;52.924;-2.388;2023-03-04T09:00:38;100799.66;;;4.57;71.42
43804;BME280;29430;52.924;-2.388;2023-03-04T09:05:31;100792.59;;;4.56;71.62
43804;BME280;29430;52.924;-2.388;2023-03-04T09:10:24;100789.59;;;4.59;71.28
43804;BME280;29430;52.924;-2.388;2023-03-04T09:15:15;100788.84;;;4.66;71.98
43804;BME280;29430;52.924;-2.388;2023-03-04T09:20:10;100784.22;;;4.77;71.45
43804;BME280;29430;52.924;-2.388;2023-03-04T09:25:03;100787.84;;;4.86;70.99
43804;BME280;29430;52.924;-2.388;2023-03-04T09:29:55;100789.38;;;4.88;71.29
43804;BME280;29430;52.924;-2.388;2023-03-04T09:34:46;100789.53;;;4.87;70.28
43804;BME280;29430;52.924;-2.388;2023-03-04T09:39:38;100788.38;;;4.89;70.99
43804;BME280;29430;52.924;-2.388;2023-03-04T09:44:33;100782.69;;;4.92;69.34
43804;BME280;29430;52.924;-2.388;2023-03-04T09:49:27;100787.06;;;4.93;70.03
43804;BME280;29430;52.924;-2.388;2023-03-04T09:54:26;100786.09;;;4.94;69.44
43804;BME280;29430;52.924;-2.388;2023-03-04T09:59:34;100785.47;;;5.00;68.99
43804;BME280;29430;52.924;-2.388;2023-03-04T10:04:46;100787.13;;;5.01;69.37
43804;BME280;29430;52.924;-2.388;2023-03-04T10:09:42;100788.16;;;5.00;69.19
43804;BME280;29430;52.924;-2.388;2023-03-04T10:14:44;100784.59;;;5.00;68.64
43804;BME280;29430;52.924;-2.388;2023-03-04T10:20:32;100782.63;;;5.02;68.62
43804;BME280;29430;52.924;-2.388;2023-03-04T10:30:25;100778.28;;;5.09;69.22
43804;BME280;29430;52.924;-2.388;2023-03-04T10:35:22;100776.53;;;5.18;69.46
43804;BME280;29430;52.924;-2.388;2023-03-04T10:40:19;100777.91;;;5.22;67.58
43804;BME280;29430;52.924;-2.388;2023-03-04T10:45:20;100780.97;;;5.27;68.20
43804;BME280;29430;52.924;-2.388;2023-03-04T10:50:21;100774.09;;;5.33;66.13
43804;BME280;29430;52.924;-2.388;2023-03-04T10:55:26;100771.41;;;5.33;66.37
43804;BME280;29430;52.924;-2.388;2023-03-04T11:15:17;100751.78;;;5.41;65.58
43804;BME280;29430;52.924;-2.388;2023-03-04T11:20:27;100761.19;;;5.36;65.35
43804;BME280;29430;52.924;-2.388;2023-03-04T11:25:25;100763.00;;;5.36;65.57
43804;BME280;29430;52.924;-2.388;2023-03-04T11:35:23;100753.63;;;5.40;66.34
43804;BME280;29430;52.924;-2.388;2023-03-04T11:40:35;100752.16;;;5.46;64.92
43804;BME280;29430;52.924;-2.388;2023-03-04T11:56:30;100720.22;;;5.51;64.66
43804;BME280;29430;52.924;-2.388;2023-03-04T12:17:15;100694.41;;;5.66;64.21
43804;BME280;29430;52.924;-2.388;2023-03-04T12:22:26;100683.19;;;5.79;64.49
43804;BME280;29430;52.924;-2.388;2023-03-04T12:38:26;100678.06;;;6.02;62.70
43804;BME280;29430;52.924;-2.388;2023-03-04T12:43:30;100685.16;;;6.03;62.97
43804;BME280;29430;52.924;-2.388;2023-03-04T12:48:34;100667.28;;;6.02;62.57
43804;BME280;29430;52.924;-2.388;2023-03-04T12:58:23;100660.72;;;5.97;63.90
43804;BME280;29430;52.924;-2.388;2023-03-04T13:03:36;100648.28;;;6.04;63.63
43804;BME280;29430;52.924;-2.388;2023-03-04T13:13:42;100647.66;;;6.18;63.15
43804;BME280;29430;52.924;-2.388;2023-03-04T13:18:35;100636.19;;;6.16;62.40
43804;BME280;29430;52.924;-2.388;2023-03-04T13:23:28;100632.66;;;6.07;62.50
43804;BME280;29430;52.924;-2.388;2023-03-04T13:53:45;100605.00;;;5.97;63.32
43804;BME280;29430;52.924;-2.388;2023-03-04T13:58:40;100597.91;;;5.96;64.08
43804;BME280;29430;52.924;-2.388;2023-03-04T14:03:33;100594.09;;;5.99;63.94
43804;BME280;29430;52.924;-2.388;2023-03-04T14:08:25;100588.53;;;6.00;63.82
43804;BME280;29430;52.924;-2.388;2023-03-04T14:13:17;100587.53;;;6.01;63.62
43804;BME280;29430;52.924;-2.388;2023-03-04T14:18:11;100583.47;;;6.05;63.60
43804;BME280;29430;52.924;-2.388;2023-03-04T14:23:21;100580.97;;;6.12;64.49
43804;BME280;29430;52.924;-2.388;2023-03-04T14:28:16;100572.38;;;6.25;64.42
43804;BME280;29430;52.924;-2.388;2023-03-04T14:33:15;100565.50;;;6.31;63.91
43804;BME280;29430;52.924;-2.388;2023-03-04T14:38:22;100564.97;;;6.35;64.26
43804;BME280;29430;52.924;-2.388;2023-03-04T14:43:20;100567.84;;;6.42;63.95
43804;BME280;29430;52.924;-2.388;2023-03-04T14:58:22;100554.03;;;6.20;63.16
43804;BME280;29430;52.924;-2.388;2023-03-04T15:03:30;100554.72;;;6.14;64.24
43804;BME280;29430;52.924;-2.388;2023-03-04T15:08:26;100554.03;;;6.20;64.42
43804;BME280;29430;52.924;-2.388;2023-03-04T15:13:56;100545.78;;;6.22;64.68
43804;BME280;29430;52.924;-2.388;2023-03-04T15:19:04;100533.66;;;6.18;63.62
43804;BME280;29430;52.924;-2.388;2023-03-04T15:23:56;100531.47;;;6.13;64.84
43804;BME280;29430;52.924;-2.388;2023-03-04T15:28:48;100528.78;;;6.13;64.94
43804;BME280;29430;52.924;-2.388;2023-03-04T15:33:40;100524.41;;;6.12;64.57
43804;BME280;29430;52.924;-2.388;2023-03-04T15:38:31;100515.47;;;6.12;64.61
43804;BME280;29430;52.924;-2.388;2023-03-04T15:43:23;100519.19;;;6.11;64.85
43804;BME280;29430;52.924;-2.388;2023-03-04T15:48:16;100517.00;;;5.98;65.34
43804;BME280;29430;52.924;-2.388;2023-03-04T15:53:13;100508.91;;;5.98;65.43
43804;BME280;29430;52.924;-2.388;2023-03-04T15:58:09;100520.03;;;6.03;65.81
43804;BME280;29430;52.924;-2.388;2023-03-04T16:03:01;100506.91;;;6.00;65.40
43804;BME280;29430;52.924;-2.388;2023-03-04T16:07:53;100497.28;;;5.89;65.44
43804;BME280;29430;52.924;-2.388;2023-03-04T16:12:45;100502.31;;;5.84;65.50
43804;BME280;29430;52.924;-2.388;2023-03-04T16:17:37;100500.31;;;5.86;65.40
43804;BME280;29430;52.924;-2.388;2023-03-04T16:22:39;100493.72;;;5.88;65.68
43804;BME280;29430;52.924;-2.388;2023-03-04T16:27:32;100491.38;;;5.85;66.01
43804;BME280;29430;52.924;-2.388;2023-03-04T16:32:24;100482.13;;;5.88;65.86
43804;BME280;29430;52.924;-2.388;2023-03-04T16:37:18;100470.38;;;5.89;65.87
43804;BME280;29430;52.924;-2.388;2023-03-04T16:42:18;100475.06;;;5.87;65.99
43804;BME280;29430;52.924;-2.388;2023-03-04T16:47:12;100478.78;;;5.86;65.75
43804;BME280;29430;52.924;-2.388;2023-03-04T16:52:04;100465.47;;;5.84;66.33
43804;BME280;29430;52.924;-2.388;2023-03-04T16:56:58;100470.34;;;5.81;66.03
43804;BME280;29430;52.924;-2.388;2023-03-04T17:01:51;100472.38;;;5.79;66.79
43804;BME280;29430;52.924;-2.388;2023-03-04T17:06:43;100473.53;;;5.76;66.70
43804;BME280;29430;52.924;-2.388;2023-03-04T17:11:35;100472.72;;;5.67;68.53
43804;BME280;29430;52.924;-2.388;2023-03-04T17:16:27;100471.19;;;5.65;69.56
43804;BME280;29430;52.924;-2.388;2023-03-04T17:21:22;100474.88;;;5.64;70.65
43804;BME280;29430;52.924;-2.388;2023-03-04T17:26:14;100475.53;;;5.57;70.81
43804;BME280;29430;52.924;-2.388;2023-03-04T17:31:09;100461.59;;;5.54;71.61
43804;BME280;29430;52.924;-2.388;2023-03-04T17:36:01;100474.53;;;5.50;71.67
43804;BME280;29430;52.924;-2.388;2023-03-04T17:40:53;100467.13;;;5.44;72.30
43804;BME280;29430;52.924;-2.388;2023-03-04T17:45:46;100466.59;;;5.41;72.81
43804;BME280;29430;52.924;-2.388;2023-03-04T17:50:38;100466.78;;;5.39;72.59
43804;BME280;29430;52.924;-2.388;2023-03-04T17:55:30;100461.56;;;5.37;72.50
43804;BME280;29430;52.924;-2.388;2023-03-04T18:00:22;100459.19;;;5.34;72.38
43804;BME280;29430;52.924;-2.388;2023-03-04T18:05:13;100461.53;;;5.29;71.69
43804;BME280;29430;52.924;-2.388;2023-03-04T18:10:06;100452.97;;;5.26;72.32
43804;BME280;29430;52.924;-2.388;2023-03-04T18:14:57;100462.53;;;5.20;71.52
43804;BME280;29430;52.924;-2.388;2023-03-04T18:19:49;100458.69;;;5.14;71.99
43804;BME280;29430;52.924;-2.388;2023-03-04T18:24:41;100456.47;;;5.10;71.71
43804;BME280;29430;52.924;-2.388;2023-03-04T18:29:34;100459.81;;;5.04;71.93
43804;BME280;29430;52.924;-2.388;2023-03-04T18:34:26;100466.34;;;5.01;71.02
43804;BME280;29430;52.924;-2.388;2023-03-04T18:39:17;100461.13;;;4.99;70.43
43804;BME280;29430;52.924;-2.388;2023-03-04T18:44:09;100469.69;;;4.95;70.38
43804;BME280;29430;52.924;-2.388;2023-03-04T18:49:03;100465.47;;;4.92;70.61
43804;BME280;29430;52.924;-2.388;2023-03-04T18:53:56;100466.50;;;4.91;70.51
43804;BME280;29430;52.924;-2.388;2023-03-04T18:58:49;100460.06;;;4.84;70.31
43804;BME280;29430;52.924;-2.388;2023-03-04T19:03:42;100457.72;;;4.81;69.31
43804;BME280;29430;52.924;-2.388;2023-03-04T19:08:35;100452.34;;;4.81;69.06
43804;BME280;29430;52.924;-2.388;2023-03-04T19:13:26;100445.59;;;4.77;69.49
43804;BME280;29430;52.924;-2.388;2023-03-04T19:18:21;100444.91;;;4.66;68.64
43804;BME280;29430;52.924;-2.388;2023-03-04T19:23:13;100453.59;;;4.60;69.30
43804;BME280;29430;52.924;-2.388;2023-03-04T19:28:05;100447.38;;;4.60;69.51
43804;BME280;29430;52.924;-2.388;2023-03-04T19:32:57;100441.66;;;4.63;69.83
43804;BME280;29430;52.924;-2.388;2023-03-04T19:37:49;100448.75;;;4.64;70.46
43804;BME280;29430;52.924;-2.388;2023-03-04T19:42:41;100440.19;;;4.69;70.52
43804;BME280;29430;52.924;-2.388;2023-03-04T19:47:33;100431.13;;;4.70;69.33
43804;BME280;29430;52.924;-2.388;2023-03-04T19:52:25;100432.47;;;4.65;69.22
43804;BME280;29430;52.924;-2.388;2023-03-04T19:57:17;100430.25;;;4.61;69.37
43804;BME280;29430;52.924;-2.388;2023-03-04T20:02:08;100437.09;;;4.55;69.53
43804;BME280;29430;52.924;-2.388;2023-03-04T20:07:00;100435.13;;;4.57;69.85
43804;BME280;29430;52.924;-2.388;2023-03-04T20:11:52;100440.16;;;4.60;69.44
43804;BME280;29430;52.924;-2.388;2023-03-04T20:16:50;100442.78;;;4.52;69.24
43804;BME280;29430;52.924;-2.388;2023-03-04T20:21:42;100433.00;;;4.43;69.42
43804;BME280;29430;52.924;-2.388;2023-03-04T20:26:34;100431.66;;;4.39;70.22
43804;BME280;29430;52.924;-2.388;2023-03-04T20:31:31;100426.81;;;4.42;70.37
43804;BME280;29430;52.924;-2.388;2023-03-04T20:36:28;100424.78;;;4.44;69.71
43804;BME280;29430;52.924;-2.388;2023-03-04T20:41:21;100430.13;;;4.36;69.03
43804;BME280;29430;52.924;-2.388;2023-03-04T20:46:43;100432.47;;;4.31;69.36
43804;BME280;29430;52.924;-2.388;2023-03-04T20:51:36;100426.22;;;4.30;69.61
43804;BME280;29430;52.924;-2.388;2023-03-04T20:56:29;100423.22;;;4.34;69.49
43804;BME280;29430;52.924;-2.388;2023-03-04T21:01:21;100411.97;;;4.30;69.57
43804;BME280;29430;52.924;-2.388;2023-03-04T21:06:13;100407.75;;;4.27;68.93
43804;BME280;29430;52.924;-2.388;2023-03-04T21:11:06;100419.84;;;4.23;68.03
43804;BME280;29430;52.924;-2.388;2023-03-04T21:15:58;100408.88;;;4.17;68.62
43804;BME280;29430;52.924;-2.388;2023-03-04T21:20:50;100399.47;;;4.12;68.54
43804;BME280;29430;52.924;-2.388;2023-03-04T21:25:46;100389.88;;;4.10;68.14
43804;BME280;29430;52.924;-2.388;2023-03-04T21:30:38;100397.63;;;4.13;67.78
43804;BME280;29430;52.924;-2.388;2023-03-04T21:35:30;100386.53;;;4.08;67.70
43804;BME280;29430;52.924;-2.388;2023-03-04T21:40:24;100392.38;;;4.03;67.75
43804;BME280;29430;52.924;-2.388;2023-03-04T21:45:16;100384.31;;;4.03;67.82
43804;BME280;29430;52.924;-2.388;2023-03-04T21:50:08;100389.84;;;4.02;67.26
43804;BME280;29430;52.924;-2.388;2023-03-04T21:55:00;100384.47;;;4.02;67.62
43804;BME280;29430;52.924;-2.388;2023-03-04T21:59:51;100378.72;;;3.97;67.72
43804;BME280;29430;52.924;-2.388;2023-03-04T22:04:43;100378.19;;;3.93;68.37
43804;BME280;29430;52.924;-2.388;2023-03-04T22:09:35;100382.44;;;3.96;68.77
43804;BME280;29430;52.924;-2.388;2023-03-04T22:14:27;100375.19;;;3.96;68.20
43804;BME280;29430;52.924;-2.388;2023-03-04T22:19:20;100374.38;;;3.96;67.22
43804;BME280;29430;52.924;-2.388;2023-03-04T22:24:12;100369.47;;;3.91;67.85
43804;BME280;29430;52.924;-2.388;2023-03-04T22:29:04;100364.44;;;3.88;67.40
43804;BME280;29430;52.924;-2.388;2023-03-04T22:34:00;100364.91;;;3.83;67.35
43804;BME280;29430;52.924;-2.388;2023-03-04T22:38:52;100363.00;;;3.75;67.82
43804;BME280;29430;52.924;-2.388;2023-03-04T22:43:44;100357.81;;;3.74;68.20
43804;BME280;29430;52.924;-2.388;2023-03-04T22:48:36;100358.28;;;3.69;68.35
43804;BME280;29430;52.924;-2.388;2023-03-04T22:53:27;100355.59;;;3.69;67.86
43804;BME280;29430;52.924;-2.388;2023-03-04T22:58:19;100359.41;;;3.67;68.20
43804;BME280;29430;52.924;-2.388;2023-03-04T23:03:10;100344.84;;;3.69;68.71
43804;BME280;29430;52.924;-2.388;2023-03-04T23:08:02;100341.16;;;3.70;68.24
43804;BME280;29430;52.924;-2.388;2023-03-04T23:12:54;100337.47;;;3.71;68.45
43804;BME280;29430;52.924;-2.388;2023-03-04T23:17:46;100326.59;;;3.73;68.60
43804;BME280;29430;52.924;-2.388;2023-03-04T23:22:38;100320.75;;;3.78;68.80
43804;BME280;29430;52.924;-2.388;2023-03-04T23:27:30;100313.75;;;3.85;68.84
43804;BME280;29430;52.924;-2.388;2023-03-04T23:32:22;100298.13;;;3.80;68.35
43804;BME280;29430;52.924;-2.388;2023-03-04T23:37:14;100284.34;;;3.75;68.93
43804;BME280;29430;52.924;-2.388;2023-03-04T23:42:05;100270.06;;;3.66;68.72
43804;BME280;29430;52.924;-2.388;2023-03-04T23:46:57;100274.38;;;3.59;68.81
43804;BME280;29430;52.924;-2.388;2023-03-04T23:51:49;100262.66;;;3.60;69.25
43804;BME280;29430;52.924;-2.388;2023-03-04T23:56:40;100248.53;;;3.58;69.16
